sensor_id;sensor_type;location;lat;lon;timestamp;pressure;altitude;pressure_sealevel;temperature;humidity
79538;BME280;68989;52.032;5.152;2023-07-29T00:01:22;100819.76;;;25.56;51.16
79538;BME280;68989;52.032;5.152;2023-07-29T00:03:49;100815.75;;;25.57;51.13
79538;BME280;68989;52.032;5.152;2023-07-29T00:06:15;100813.68;;;25.56;51.20
79538;BME280;68989;52.032;5.152;2023-07-29T00:08:42;100812.38;;;25.55;51.30
79538;BME280;68989;52.032;5.152;2023-07-29T00:11:09;100806.29;;;25.55;51.34
79538;BME280;68989;52.032;5.152;2023-07-29T00:13:36;100806.88;;;25.53;51.39
79538;BME280;68989;52.032;5.152;2023-07-29T00:16:03;100801.43;;;25.55;51.35
79538;BME280;68989;52.032;5.152;2023-07-29T00:18:30;100788.39;;;25.55;51.35
79538;BME280;68989;52.032;5.152;2023-07-29T00:20:57;100799.30;;;25.53;51.39
79538;BME280;68989;52.032;5.152;2023-07-29T00:23:23;100800.98;;;25.52;51.40
79538;BME280;68989;52.032;5.152;2023-07-29T00:25:51;100804.34;;;25.51;51.34
79538;BME280;68989;52.032;5.152;2023-07-29T00:28:18;100808.37;;;25.50;51.33
79538;BME280;68989;52.032;5.152;2023-07-29T00:30:44;100813.23;;;25.48;51.40
79538;BME280;68989;52.032;5.152;2023-07-29T00:33:11;100813.35;;;25.47;51.43
79538;BME280;68989;52.032;5.152;2023-07-29T00:35:38;100812.46;;;25.46;51.46
79538;BME280;68989;52.032;5.152;2023-07-29T00:38:04;100810.00;;;25.46;51.54
79538;BME280;68989;52.032;5.152;2023-07-29T00:40:35;100798.56;;;25.47;51.52
79538;BME280;68989;52.032;5.152;2023-07-29T00:43:02;100799.45;;;25.47;51.59
79538;BME280;68989;52.032;5.152;2023-07-29T00:45:29;100795.44;;;25.46;51.62
79538;BME280;68989;52.032;5.152;2023-07-29T00:47:57;100790.58;;;25.46;51.62
79538;BME280;68989;52.032;5.152;2023-07-29T00:50:24;100793.65;;;25.45;51.57
79538;BME280;68989;52.032;5.152;2023-07-29T00:52:52;100790.60;;;25.46;51.46
79538;BME280;68989;52.032;5.152;2023-07-29T00:55:19;100790.53;;;25.45;51.50
79538;BME280;68989;52.032;5.152;2023-07-29T00:57:46;100789.99;;;25.43;51.47
79538;BME280;68989;52.032;5.152;2023-07-29T01:01:51;100793.79;;;25.41;51.44
79538;BME280;68989;52.032;5.152;2023-07-29T01:04:18;100791.49;;;25.40;51.51
79538;BME280;68989;52.032;5.152;2023-07-29T01:06:53;100789.82;;;25.38;51.50
79538;BME280;68989;52.032;5.152;2023-07-29T01:09:30;100788.35;;;25.36;51.56
79538;BME280;68989;52.032;5.152;2023-07-29T01:12:06;100788.46;;;25.34;51.55
79538;BME280;68989;52.032;5.152;2023-07-29T01:14:41;100785.58;;;25.32;51.59
79538;BME280;68989;52.032;5.152;2023-07-29T01:17:15;100787.68;;;25.30;51.61
79538;BME280;68989;52.032;5.152;2023-07-29T01:19:59;100788.84;;;25.27;51.66
79538;BME280;68989;52.032;5.152;2023-07-29T01:22:27;100785.42;;;25.25;51.76
79538;BME280;68989;52.032;5.152;2023-07-29T01:24:54;100777.17;;;25.22;51.81
79538;BME280;68989;52.032;5.152;2023-07-29T01:27:23;100780.77;;;25.22;51.85
79538;BME280;68989;52.032;5.152;2023-07-29T01:29:50;100779.87;;;25.20;51.92
79538;BME280;68989;52.032;5.152;2023-07-29T01:32:21;100782.00;;;25.19;51.92
79538;BME280;68989;52.032;5.152;2023-07-29T01:35:00;100782.88;;;25.18;51.96
79538;BME280;68989;52.032;5.152;2023-07-29T01:37:32;100783.21;;;25.17;51.96
79538;BME280;68989;52.032;5.152;2023-07-29T01:40:00;100780.77;;;25.15;52.09
79538;BME280;68989;52.032;5.152;2023-07-29T01:42:28;100779.99;;;25.13;52.19
79538;BME280;68989;52.032;5.152;2023-07-29T01:44:56;100777.60;;;25.12;52.19
79538;BME280;68989;52.032;5.152;2023-07-29T01:47:24;100778.45;;;25.12;52.19
79538;BME280;68989;52.032;5.152;2023-07-29T01:49:51;100772.29;;;25.13;52.10
79538;BME280;68989;52.032;5.152;2023-07-29T01:52:19;100770.35;;;25.12;52.12
79538;BME280;68989;52.032;5.152;2023-07-29T01:54:47;100770.61;;;25.11;52.13
79538;BME280;68989;52.032;5.152;2023-07-29T01:57:14;100767.24;;;25.11;52.15
79538;BME280;68989;52.032;5.152;2023-07-29T01:59:42;100769.09;;;25.10;52.19
79538;BME280;68989;52.032;5.152;2023-07-29T02:02:10;100765.14;;;25.09;52.17
79538;BME280;68989;52.032;5.152;2023-07-29T02:04:37;100763.78;;;25.08;52.22
79538;BME280;68989;52.032;5.152;2023-07-29T02:07:05;100758.65;;;25.07;52.24
79538;BME280;68989;52.032;5.152;2023-07-29T02:09:33;100759.09;;;25.05;52.22
79538;BME280;68989;52.032;5.152;2023-07-29T02:12:01;100760.45;;;25.04;52.27
79538;BME280;68989;52.032;5.152;2023-07-29T02:14:28;100759.33;;;25.03;52.24
79538;BME280;68989;52.032;5.152;2023-07-29T02:16:55;100763.50;;;25.02;52.33
79538;BME280;68989;52.032;5.152;2023-07-29T02:19:23;100760.08;;;25.01;52.24
79538;BME280;68989;52.032;5.152;2023-07-29T02:21:51;100760.64;;;25.00;52.24
79538;BME280;68989;52.032;5.152;2023-07-29T02:24:18;100760.81;;;24.99;52.25
79538;BME280;68989;52.032;5.152;2023-07-29T02:26:45;100759.98;;;24.97;52.21
79538;BME280;68989;52.032;5.152;2023-07-29T02:29:13;100753.67;;;24.96;52.27
79538;BME280;68989;52.032;5.152;2023-07-29T02:31:41;100754.47;;;24.94;52.16
79538;BME280;68989;52.032;5.152;2023-07-29T02:34:08;100748.35;;;24.93;52.22
79538;BME280;68989;52.032;5.152;2023-07-29T02:36:36;100746.40;;;24.91;52.22
79538;BME280;68989;52.032;5.152;2023-07-29T02:39:04;100748.33;;;24.89;52.23
79538;BME280;68989;52.032;5.152;2023-07-29T02:41:31;100749.10;;;24.88;52.19
79538;BME280;68989;52.032;5.152;2023-07-29T02:43:59;100745.98;;;24.87;52.15
79538;BME280;68989;52.032;5.152;2023-07-29T02:46:26;100745.87;;;24.85;52.09
79538;BME280;68989;52.032;5.152;2023-07-29T02:48:54;100749.36;;;24.84;52.16
79538;BME280;68989;52.032;5.152;2023-07-29T02:51:22;100746.43;;;24.83;52.11
79538;BME280;68989;52.032;5.152;2023-07-29T02:53:49;100748.55;;;24.81;52.14
79538;BME280;68989;52.032;5.152;2023-07-29T02:56:16;100741.18;;;24.79;52.15
79538;BME280;68989;52.032;5.152;2023-07-29T02:58:44;100735.37;;;24.78;52.11
79538;BME280;68989;52.032;5.152;2023-07-29T03:01:11;100727.55;;;24.78;52.13
79538;BME280;68989;52.032;5.152;2023-07-29T03:03:39;100726.30;;;24.78;52.05
79538;BME280;68989;52.032;5.152;2023-07-29T03:06:08;100728.85;;;24.76;52.06
79538;BME280;68989;52.032;5.152;2023-07-29T03:08:36;100724.44;;;24.75;52.03
79538;BME280;68989;52.032;5.152;2023-07-29T03:11:07;100727.52;;;24.74;52.09
79538;BME280;68989;52.032;5.152;2023-07-29T03:13:34;100727.75;;;24.74;52.01
79538;BME280;68989;52.032;5.152;2023-07-29T03:16:07;100729.34;;;24.73;52.02
79538;BME280;68989;52.032;5.152;2023-07-29T03:18:35;100727.49;;;24.72;52.04
79538;BME280;68989;52.032;5.152;2023-07-29T03:21:03;100735.76;;;24.71;52.04
79538;BME280;68989;52.032;5.152;2023-07-29T03:23:32;100733.54;;;24.70;52.02
79538;BME280;68989;52.032;5.152;2023-07-29T03:26:00;100733.06;;;24.69;51.97
79538;BME280;68989;52.032;5.152;2023-07-29T03:28:31;100733.35;;;24.68;51.93
79538;BME280;68989;52.032;5.152;2023-07-29T03:30:59;100733.18;;;24.67;52.03
79538;BME280;68989;52.032;5.152;2023-07-29T03:33:26;100734.92;;;24.67;51.98
79538;BME280;68989;52.032;5.152;2023-07-29T03:35:54;100731.46;;;24.66;52.01
79538;BME280;68989;52.032;5.152;2023-07-29T03:38:21;100729.99;;;24.64;51.87
79538;BME280;68989;52.032;5.152;2023-07-29T03:40:49;100735.49;;;24.62;52.02
79538;BME280;68989;52.032;5.152;2023-07-29T03:43:16;100741.95;;;24.62;52.03
79538;BME280;68989;52.032;5.152;2023-07-29T03:45:44;100742.15;;;24.60;52.00
79538;BME280;68989;52.032;5.152;2023-07-29T03:48:12;100737.93;;;24.59;52.02
79538;BME280;68989;52.032;5.152;2023-07-29T03:50:39;100735.13;;;24.58;52.00
79538;BME280;68989;52.032;5.152;2023-07-29T03:53:08;100736.54;;;24.56;52.02
79538;BME280;68989;52.032;5.152;2023-07-29T03:55:35;100746.56;;;24.55;52.03
79538;BME280;68989;52.032;5.152;2023-07-29T03:58:03;100749.49;;;24.53;51.97
79538;BME280;68989;52.032;5.152;2023-07-29T04:00:30;100751.17;;;24.52;52.05
79538;BME280;68989;52.032;5.152;2023-07-29T04:02:58;100744.60;;;24.50;51.99
79538;BME280;68989;52.032;5.152;2023-07-29T04:05:25;100737.10;;;24.49;51.96
79538;BME280;68989;52.032;5.152;2023-07-29T04:07:54;100736.14;;;24.47;51.91
79538;BME280;68989;52.032;5.152;2023-07-29T04:10:21;100734.11;;;24.46;51.92
79538;BME280;68989;52.032;5.152;2023-07-29T04:12:49;100734.32;;;24.43;51.97
79538;BME280;68989;52.032;5.152;2023-07-29T04:15:17;100740.69;;;24.41;52.00
79538;BME280;68989;52.032;5.152;2023-07-29T04:17:44;100738.16;;;24.40;52.01
79538;BME280;68989;52.032;5.152;2023-07-29T04:20:12;100739.75;;;24.38;51.95
79538;BME280;68989;52.032;5.152;2023-07-29T04:22:40;100743.54;;;24.37;51.97
79538;BME280;68989;52.032;5.152;2023-07-29T04:25:08;100735.06;;;24.36;51.99
79538;BME280;68989;52.032;5.152;2023-07-29T04:27:35;100733.91;;;24.35;51.96
79538;BME280;68989;52.032;5.152;2023-07-29T04:30:04;100739.13;;;24.34;51.94
79538;BME280;68989;52.032;5.152;2023-07-29T04:32:31;100740.01;;;24.34;52.00
79538;BME280;68989;52.032;5.152;2023-07-29T04:34:59;100742.27;;;24.33;51.98
79538;BME280;68989;52.032;5.152;2023-07-29T04:37:26;100736.64;;;24.32;51.93
79538;BME280;68989;52.032;5.152;2023-07-29T04:39:54;100742.60;;;24.30;52.03
79538;BME280;68989;52.032;5.152;2023-07-29T04:42:21;100740.61;;;24.30;51.98
79538;BME280;68989;52.032;5.152;2023-07-29T04:44:49;100737.47;;;24.28;52.00
79538;BME280;68989;52.032;5.152;2023-07-29T04:47:16;100753.34;;;24.28;52.05
79538;BME280;68989;52.032;5.152;2023-07-29T04:49:44;100754.81;;;24.27;52.00
79538;BME280;68989;52.032;5.152;2023-07-29T04:52:11;100743.20;;;24.27;52.07
79538;BME280;68989;52.032;5.152;2023-07-29T04:54:39;100747.68;;;24.27;52.11
79538;BME280;68989;52.032;5.152;2023-07-29T04:57:08;100749.45;;;24.27;52.10
79538;BME280;68989;52.032;5.152;2023-07-29T04:59:35;100755.68;;;24.28;52.16
79538;BME280;68989;52.032;5.152;2023-07-29T05:02:02;100762.53;;;24.27;51.92
79538;BME280;68989;52.032;5.152;2023-07-29T05:04:30;100767.37;;;24.28;52.21
79538;BME280;68989;52.032;5.152;2023-07-29T05:06:58;100768.75;;;24.28;52.26
79538;BME280;68989;52.032;5.152;2023-07-29T05:09:26;100769.76;;;24.29;52.27
79538;BME280;68989;52.032;5.152;2023-07-29T05:11:53;100759.46;;;24.30;52.29
79538;BME280;68989;52.032;5.152;2023-07-29T05:14:21;100761.60;;;24.31;52.37
79538;BME280;68989;52.032;5.152;2023-07-29T05:16:49;100755.47;;;24.34;52.39
79538;BME280;68989;52.032;5.152;2023-07-29T05:19:16;100755.79;;;24.35;52.38
79538;BME280;68989;52.032;5.152;2023-07-29T05:21:44;100758.61;;;24.37;52.31
79538;BME280;68989;52.032;5.152;2023-07-29T05:24:11;100757.80;;;24.37;52.36
79538;BME280;68989;52.032;5.152;2023-07-29T05:26:39;100766.88;;;24.38;52.44
79538;BME280;68989;52.032;5.152;2023-07-29T05:29:07;100764.44;;;24.39;52.45
79538;BME280;68989;52.032;5.152;2023-07-29T05:31:35;100764.96;;;24.41;52.40
79538;BME280;68989;52.032;5.152;2023-07-29T05:34:03;100772.05;;;24.43;52.39
79538;BME280;68989;52.032;5.152;2023-07-29T05:36:30;100769.17;;;24.45;52.53
79538;BME280;68989;52.032;5.152;2023-07-29T05:38:58;100765.57;;;24.47;52.51
79538;BME280;68989;52.032;5.152;2023-07-29T05:41:25;100761.79;;;24.50;52.49
79538;BME280;68989;52.032;5.152;2023-07-29T05:43:53;100764.82;;;24.53;52.46
79538;BME280;68989;52.032;5.152;2023-07-29T05:46:20;100764.75;;;24.55;52.43
79538;BME280;68989;52.032;5.152;2023-07-29T05:48:48;100765.65;;;24.59;52.41
79538;BME280;68989;52.032;5.152;2023-07-29T05:51:16;100764.62;;;24.62;52.37
79538;BME280;68989;52.032;5.152;2023-07-29T05:53:43;100764.02;;;24.65;52.43
79538;BME280;68989;52.032;5.152;2023-07-29T05:56:10;100768.54;;;24.70;52.37
79538;BME280;68989;52.032;5.152;2023-07-29T05:58:39;100767.13;;;24.74;52.34
79538;BME280;68989;52.032;5.152;2023-07-29T06:01:16;100765.76;;;24.80;52.49
79538;BME280;68989;52.032;5.152;2023-07-29T06:03:43;100757.79;;;24.86;52.39
79538;BME280;68989;52.032;5.152;2023-07-29T06:06:10;100755.88;;;24.91;52.48
79538;BME280;68989;52.032;5.152;2023-07-29T06:08:37;100757.32;;;24.97;52.89
79538;BME280;68989;52.032;5.152;2023-07-29T06:11:05;100762.93;;;25.04;52.87
79538;BME280;68989;52.032;5.152;2023-07-29T06:13:32;100760.81;;;25.10;52.39
79538;BME280;68989;52.032;5.152;2023-07-29T06:16:00;100767.36;;;25.17;52.67
79538;BME280;68989;52.032;5.152;2023-07-29T06:18:27;100764.47;;;25.22;52.44
79538;BME280;68989;52.032;5.152;2023-07-29T06:20:54;100769.59;;;25.26;52.13
79538;BME280;68989;52.032;5.152;2023-07-29T06:23:21;100767.89;;;25.30;52.07
79538;BME280;68989;52.032;5.152;2023-07-29T06:25:48;100772.37;;;25.33;51.96
79538;BME280;68989;52.032;5.152;2023-07-29T06:28:23;100775.26;;;25.36;52.05
79538;BME280;68989;52.032;5.152;2023-07-29T06:31:02;100777.27;;;25.40;52.23
79538;BME280;68989;52.032;5.152;2023-07-29T06:33:29;100776.96;;;25.45;52.06
79538;BME280;68989;52.032;5.152;2023-07-29T06:35:57;100783.26;;;25.50;52.14
79538;BME280;68989;52.032;5.152;2023-07-29T06:38:26;100781.71;;;25.56;52.47
79538;BME280;68989;52.032;5.152;2023-07-29T06:40:53;100781.44;;;25.61;52.26
79538;BME280;68989;52.032;5.152;2023-07-29T06:43:19;100779.20;;;25.66;52.19
79538;BME280;68989;52.032;5.152;2023-07-29T06:45:46;100773.50;;;25.71;51.92
79538;BME280;68989;52.032;5.152;2023-07-29T06:48:13;100780.37;;;25.75;52.15
79538;BME280;68989;52.032;5.152;2023-07-29T06:50:40;100778.67;;;25.79;52.28
79538;BME280;68989;52.032;5.152;2023-07-29T06:53:08;100781.70;;;25.82;52.08
79538;BME280;68989;52.032;5.152;2023-07-29T06:55:36;100781.98;;;25.85;51.93
79538;BME280;68989;52.032;5.152;2023-07-29T06:58:03;100784.04;;;25.87;51.71
79538;BME280;68989;52.032;5.152;2023-07-29T07:00:30;100788.08;;;25.90;51.61
79538;BME280;68989;52.032;5.152;2023-07-29T07:03:02;100789.07;;;25.94;51.85
79538;BME280;68989;52.032;5.152;2023-07-29T07:05:29;100789.05;;;25.99;51.56
79538;BME280;68989;52.032;5.152;2023-07-29T07:07:55;100791.15;;;26.01;51.33
79538;BME280;68989;52.032;5.152;2023-07-29T07:10:22;100790.12;;;26.02;51.28
79538;BME280;68989;52.032;5.152;2023-07-29T07:12:49;100790.56;;;26.03;51.17
79538;BME280;68989;52.032;5.152;2023-07-29T07:15:22;100792.06;;;26.05;51.48
79538;BME280;68989;52.032;5.152;2023-07-29T07:17:51;100794.94;;;26.07;51.32
79538;BME280;68989;52.032;5.152;2023-07-29T07:20:19;100793.90;;;26.11;51.16
79538;BME280;68989;52.032;5.152;2023-07-29T07:22:47;100795.64;;;26.10;51.38
79538;BME280;68989;52.032;5.152;2023-07-29T07:25:14;100794.23;;;26.13;51.48
79538;BME280;68989;52.032;5.152;2023-07-29T07:27:42;100796.30;;;26.18;51.48
79538;BME280;68989;52.032;5.152;2023-07-29T07:30:10;100798.96;;;26.25;51.94
79538;BME280;68989;52.032;5.152;2023-07-29T07:32:38;100801.14;;;26.33;51.90
79538;BME280;68989;52.032;5.152;2023-07-29T07:35:07;100800.09;;;26.41;51.46
79538;BME280;68989;52.032;5.152;2023-07-29T07:37:35;100799.85;;;26.46;51.38
79538;BME280;68989;52.032;5.152;2023-07-29T07:40:03;100799.57;;;26.53;51.06
79538;BME280;68989;52.032;5.152;2023-07-29T07:42:31;100804.72;;;26.57;50.99
79538;BME280;68989;52.032;5.152;2023-07-29T07:45:00;100804.13;;;26.57;50.98
79538;BME280;68989;52.032;5.152;2023-07-29T07:47:28;100806.65;;;26.63;51.08
79538;BME280;68989;52.032;5.152;2023-07-29T07:49:55;100806.13;;;26.70;50.89
79538;BME280;68989;52.032;5.152;2023-07-29T07:52:22;100806.74;;;26.75;50.68
79538;BME280;68989;52.032;5.152;2023-07-29T07:54:52;100806.26;;;26.82;51.11
79538;BME280;68989;52.032;5.152;2023-07-29T07:57:20;100804.92;;;26.97;50.66
79538;BME280;68989;52.032;5.152;2023-07-29T07:59:47;100805.17;;;27.09;50.97
79538;BME280;68989;52.032;5.152;2023-07-29T08:02:13;100795.87;;;27.22;50.16
79538;BME280;68989;52.032;5.152;2023-07-29T08:04:40;100798.76;;;27.35;49.72
79538;BME280;68989;52.032;5.152;2023-07-29T08:07:08;100800.45;;;27.46;49.37
79538;BME280;68989;52.032;5.152;2023-07-29T08:09:35;100800.22;;;27.53;49.08
79538;BME280;68989;52.032;5.152;2023-07-29T08:12:03;100796.37;;;27.56;48.67
79538;BME280;68989;52.032;5.152;2023-07-29T08:14:30;100795.12;;;27.59;48.67
79538;BME280;68989;52.032;5.152;2023-07-29T08:16:57;100803.54;;;27.62;48.61
79538;BME280;68989;52.032;5.152;2023-07-29T08:19:24;100806.90;;;27.65;48.44
79538;BME280;68989;52.032;5.152;2023-07-29T08:21:51;100810.82;;;27.67;48.44
79538;BME280;68989;52.032;5.152;2023-07-29T08:24:18;100809.00;;;27.69;48.37
79538;BME280;68989;52.032;5.152;2023-07-29T08:26:45;100804.57;;;27.70;48.05
79538;BME280;68989;52.032;5.152;2023-07-29T08:29:12;100807.30;;;27.71;47.78
79538;BME280;68989;52.032;5.152;2023-07-29T08:31:39;100808.49;;;27.71;47.82
79538;BME280;68989;52.032;5.152;2023-07-29T08:34:06;100810.72;;;27.70;47.66
79538;BME280;68989;52.032;5.152;2023-07-29T08:36:33;100811.13;;;27.70;47.71
79538;BME280;68989;52.032;5.152;2023-07-29T08:39:00;100814.29;;;27.73;47.92
79538;BME280;68989;52.032;5.152;2023-07-29T08:41:32;100809.32;;;27.78;48.11
79538;BME280;68989;52.032;5.152;2023-07-29T08:44:09;100807.41;;;27.87;48.21
79538;BME280;68989;52.032;5.152;2023-07-29T08:46:36;100803.33;;;27.98;48.09
79538;BME280;68989;52.032;5.152;2023-07-29T08:49:04;100811.15;;;28.10;48.11
79538;BME280;68989;52.032;5.152;2023-07-29T08:51:32;100808.55;;;28.22;47.98
79538;BME280;68989;52.032;5.152;2023-07-29T08:54:00;100812.17;;;28.35;47.40
79538;BME280;68989;52.032;5.152;2023-07-29T08:56:28;100813.70;;;28.46;46.68
79538;BME280;68989;52.032;5.152;2023-07-29T08:58:56;100810.41;;;28.55;46.60
79538;BME280;68989;52.032;5.152;2023-07-29T09:01:23;100812.54;;;28.62;46.41
79538;BME280;68989;52.032;5.152;2023-07-29T09:03:51;100815.19;;;28.67;46.05
79538;BME280;68989;52.032;5.152;2023-07-29T09:06:18;100809.07;;;28.69;45.86
79538;BME280;68989;52.032;5.152;2023-07-29T09:08:46;100810.55;;;28.69;45.82
79538;BME280;68989;52.032;5.152;2023-07-29T09:11:15;100809.14;;;28.68;45.64
79538;BME280;68989;52.032;5.152;2023-07-29T09:13:43;100812.24;;;28.69;45.79
79538;BME280;68989;52.032;5.152;2023-07-29T09:16:11;100810.07;;;28.71;45.51
79538;BME280;68989;52.032;5.152;2023-07-29T09:18:38;100810.09;;;28.75;45.43
79538;BME280;68989;52.032;5.152;2023-07-29T09:21:06;100814.77;;;28.78;45.24
79538;BME280;68989;52.032;5.152;2023-07-29T09:23:39;100814.31;;;28.82;44.98
79538;BME280;68989;52.032;5.152;2023-07-29T09:26:08;100811.90;;;28.84;44.68
79538;BME280;68989;52.032;5.152;2023-07-29T09:28:38;100811.54;;;28.84;44.54
79538;BME280;68989;52.032;5.152;2023-07-29T09:31:05;100806.60;;;28.82;44.43
79538;BME280;68989;52.032;5.152;2023-07-29T09:33:34;100805.35;;;28.80;44.47
79538;BME280;68989;52.032;5.152;2023-07-29T09:36:02;100799.64;;;28.77;44.45
79538;BME280;68989;52.032;5.152;2023-07-29T09:38:29;100803.32;;;28.73;44.46
79538;BME280;68989;52.032;5.152;2023-07-29T09:40:57;100802.36;;;28.72;44.71
79538;BME280;68989;52.032;5.152;2023-07-29T09:43:26;100802.75;;;28.74;45.02
79538;BME280;68989;52.032;5.152;2023-07-29T09:46:00;100802.70;;;28.80;45.29
79538;BME280;68989;52.032;5.152;2023-07-29T09:48:27;100805.05;;;28.89;44.77
79538;BME280;68989;52.032;5.152;2023-07-29T09:50:54;100801.58;;;28.95;44.31
79538;BME280;68989;52.032;5.152;2023-07-29T09:53:22;100804.72;;;29.04;44.30
79538;BME280;68989;52.032;5.152;2023-07-29T09:55:50;100809.74;;;29.13;44.26
79538;BME280;68989;52.032;5.152;2023-07-29T09:58:25;100805.44;;;29.23;44.23
79538;BME280;68989;52.032;5.152;2023-07-29T10:00:53;100808.64;;;29.33;43.93
79538;BME280;68989;52.032;5.152;2023-07-29T10:03:21;100809.24;;;29.40;43.64
79538;BME280;68989;52.032;5.152;2023-07-29T10:05:49;100812.44;;;29.44;43.75
79538;BME280;68989;52.032;5.152;2023-07-29T10:08:18;100811.97;;;29.48;43.41
79538;BME280;68989;52.032;5.152;2023-07-29T10:10:45;100813.57;;;29.52;43.52
79538;BME280;68989;52.032;5.152;2023-07-29T10:13:13;100811.23;;;29.56;43.43
79538;BME280;68989;52.032;5.152;2023-07-29T10:15:41;100811.93;;;29.62;43.31
79538;BME280;68989;52.032;5.152;2023-07-29T10:18:09;100814.93;;;29.69;43.24
79538;BME280;68989;52.032;5.152;2023-07-29T10:20:36;100816.75;;;29.79;43.16
79538;BME280;68989;52.032;5.152;2023-07-29T10:23:07;100818.76;;;29.85;42.99
79538;BME280;68989;52.032;5.152;2023-07-29T10:25:38;100826.29;;;29.93;42.86
79538;BME280;68989;52.032;5.152;2023-07-29T10:28:07;100831.50;;;29.99;42.48
79538;BME280;68989;52.032;5.152;2023-07-29T10:30:34;100838.54;;;30.00;41.92
79538;BME280;68989;52.032;5.152;2023-07-29T10:33:03;100841.97;;;29.94;41.76
79538;BME280;68989;52.032;5.152;2023-07-29T10:35:30;100839.61;;;29.83;42.01
79538;BME280;68989;52.032;5.152;2023-07-29T10:37:59;100828.16;;;29.65;42.38
79538;BME280;68989;52.032;5.152;2023-07-29T10:40:26;100831.85;;;29.44;43.14
79538;BME280;68989;52.032;5.152;2023-07-29T10:43:11;100827.92;;;29.23;44.08
79538;BME280;68989;52.032;5.152;2023-07-29T10:45:40;100833.39;;;29.09;44.73
79538;BME280;68989;52.032;5.152;2023-07-29T10:48:11;100828.09;;;28.99;45.13
79538;BME280;68989;52.032;5.152;2023-07-29T10:50:39;100830.49;;;28.91;45.60
79538;BME280;68989;52.032;5.152;2023-07-29T10:53:06;100831.59;;;28.87;45.83
79538;BME280;68989;52.032;5.152;2023-07-29T10:55:34;100831.32;;;28.82;46.45
79538;BME280;68989;52.032;5.152;2023-07-29T10:58:09;100833.53;;;28.79;46.45
79538;BME280;68989;52.032;5.152;2023-07-29T11:00:38;100834.98;;;28.74;46.53
79538;BME280;68989;52.032;5.152;2023-07-29T11:03:07;100835.29;;;28.72;46.89
79538;BME280;68989;52.032;5.152;2023-07-29T11:05:46;100837.05;;;28.69;47.23
79538;BME280;68989;52.032;5.152;2023-07-29T11:08:19;100841.32;;;28.66;47.03
79538;BME280;68989;52.032;5.152;2023-07-29T11:11:05;100840.00;;;28.61;46.71
79538;BME280;68989;52.032;5.152;2023-07-29T11:13:34;100842.33;;;28.55;46.26
79538;BME280;68989;52.032;5.152;2023-07-29T11:16:03;100845.49;;;28.48;46.69
79538;BME280;68989;52.032;5.152;2023-07-29T11:18:32;100844.33;;;28.38;46.64
79538;BME280;68989;52.032;5.152;2023-07-29T11:21:00;100840.60;;;28.26;46.99
79538;BME280;68989;52.032;5.152;2023-07-29T11:23:29;100838.60;;;28.14;47.37
79538;BME280;68989;52.032;5.152;2023-07-29T11:25:56;100841.61;;;28.04;47.49
79538;BME280;68989;52.032;5.152;2023-07-29T11:28:24;100841.25;;;27.93;47.58
79538;BME280;68989;52.032;5.152;2023-07-29T11:30:51;100847.56;;;27.84;47.92
79538;BME280;68989;52.032;5.152;2023-07-29T11:33:20;100844.12;;;27.76;48.45
79538;BME280;68989;52.032;5.152;2023-07-29T11:35:47;100838.13;;;27.70;48.62
79538;BME280;68989;52.032;5.152;2023-07-29T11:38:15;100836.96;;;27.66;48.82
79538;BME280;68989;52.032;5.152;2023-07-29T11:40:43;100836.64;;;27.66;48.99
79538;BME280;68989;52.032;5.152;2023-07-29T11:43:17;100829.18;;;27.69;49.23
79538;BME280;68989;52.032;5.152;2023-07-29T11:45:45;100825.38;;;27.78;49.76
79538;BME280;68989;52.032;5.152;2023-07-29T11:48:11;100825.19;;;27.96;51.29
79538;BME280;68989;52.032;5.152;2023-07-29T11:50:38;100823.41;;;28.20;52.17
79538;BME280;68989;52.032;5.152;2023-07-29T11:53:05;100824.51;;;28.50;52.69
79538;BME280;68989;52.032;5.152;2023-07-29T11:55:33;100822.97;;;28.80;53.26
79538;BME280;68989;52.032;5.152;2023-07-29T11:58:01;100830.06;;;29.09;52.58
79538;BME280;68989;52.032;5.152;2023-07-29T12:00:29;100830.46;;;29.36;51.78
79538;BME280;68989;52.032;5.152;2023-07-29T12:02:56;100829.70;;;29.59;50.57
79538;BME280;68989;52.032;5.152;2023-07-29T12:05:25;100827.86;;;29.86;49.82
79538;BME280;68989;52.032;5.152;2023-07-29T12:07:52;100830.62;;;29.99;48.71
79538;BME280;68989;52.032;5.152;2023-07-29T12:10:20;100825.85;;;30.10;48.22
79538;BME280;68989;52.032;5.152;2023-07-29T12:12:49;100826.05;;;30.15;47.56
79538;BME280;68989;52.032;5.152;2023-07-29T12:15:23;100821.87;;;30.17;47.35
79538;BME280;68989;52.032;5.152;2023-07-29T12:17:54;100820.29;;;30.20;47.10
79538;BME280;68989;52.032;5.152;2023-07-29T12:20:22;100820.46;;;30.23;46.91
79538;BME280;68989;52.032;5.152;2023-07-29T12:22:54;100819.00;;;30.26;46.61
79538;BME280;68989;52.032;5.152;2023-07-29T12:25:22;100818.94;;;30.29;46.53
79538;BME280;68989;52.032;5.152;2023-07-29T12:27:49;100819.75;;;30.33;46.35
79538;BME280;68989;52.032;5.152;2023-07-29T12:30:16;100819.62;;;30.35;46.30
79538;BME280;68989;52.032;5.152;2023-07-29T12:32:47;100817.88;;;30.34;45.83
79538;BME280;68989;52.032;5.152;2023-07-29T12:35:14;100818.18;;;30.33;45.94
79538;BME280;68989;52.032;5.152;2023-07-29T12:37:41;100816.98;;;30.30;45.51
79538;BME280;68989;52.032;5.152;2023-07-29T12:40:21;100816.47;;;30.25;45.67
79538;BME280;68989;52.032;5.152;2023-07-29T12:42:49;100817.14;;;30.21;46.07
79538;BME280;68989;52.032;5.152;2023-07-29T12:45:16;100816.15;;;30.21;46.74
79538;BME280;68989;52.032;5.152;2023-07-29T12:47:44;100819.35;;;30.27;46.92
79538;BME280;68989;52.032;5.152;2023-07-29T12:50:11;100816.21;;;30.42;46.15
79538;BME280;68989;52.032;5.152;2023-07-29T12:52:39;100813.02;;;30.56;45.75
79538;BME280;68989;52.032;5.152;2023-07-29T12:55:06;100808.12;;;30.73;45.70
79538;BME280;68989;52.032;5.152;2023-07-29T12:57:33;100808.78;;;30.91;45.20